sensor_id;sensor_type;location;lat;lon;timestamp;P1;durP1;ratioP1;P2;durP2;ratioP2
14817;SDS011;7500;57.698;11.986;2024-03-02T00:00:02;45.77;;;27.80;;
14817;SDS011;7500;57.698;11.986;2024-03-02T00:02:39;48.40;;;27.47;;
14817;SDS011;7500;57.698;11.986;2024-03-02T00:05:06;49.23;;;28.37;;
14817;SDS011;7500;57.698;11.986;2024-03-02T00:07:33;53.43;;;28.63;;
14817;SDS011;7500;57.698;11.986;2024-03-02T00:09:59;57.07;;;31.20;;
14817;SDS011;7500;57.698;11.986;2024-03-02T00:12:26;61.17;;;30.37;;
14817;SDS011;7500;57.698;11.986;2024-03-02T00:14:54;57.07;;;28.47;;
14817;SDS011;7500;57.698;11.986;2024-03-02T00:17:24;55.00;;;29.63;;
14817;SDS011;7500;57.698;11.986;2024-03-02T00:19:51;50.07;;;27.53;;
14817;SDS011;7500;57.698;11.986;2024-03-02T00:22:17;52.73;;;28.83;;
14817;SDS011;7500;57.698;11.986;2024-03-02T00:24:44;57.80;;;28.00;;
14817;SDS011;7500;57.698;11.986;2024-03-02T00:27:12;49.70;;;28.30;;
14817;SDS011;7500;57.698;11.986;2024-03-02T00:29:40;46.47;;;27.10;;
14817;SDS011;7500;57.698;11.986;2024-03-02T00:32:09;46.53;;;27.00;;
14817;SDS011;7500;57.698;11.986;2024-03-02T00:34:38;48.97;;;27.93;;
14817;SDS011;7500;57.698;11.986;2024-03-02T00:37:05;49.00;;;28.00;;
14817;SDS011;7500;57.698;11.986;2024-03-02T00:39:32;50.03;;;28.03;;
14817;SDS011;7500;57.698;11.986;2024-03-02T00:41:59;49.67;;;28.17;;
14817;SDS011;7500;57.698;11.986;2024-03-02T00:44:25;46.97;;;27.57;;
14817;SDS011;7500;57.698;11.986;2024-03-02T00:46:54;51.77;;;27.93;;
14817;SDS011;7500;57.698;11.986;2024-03-02T00:49:23;46.87;;;27.17;;
14817;SDS011;7500;57.698;11.986;2024-03-02T00:51:50;47.07;;;26.47;;
14817;SDS011;7500;57.698;11.986;2024-03-02T00:54:19;52.67;;;28.80;;
14817;SDS011;7500;57.698;11.986;2024-03-02T00:56:46;47.17;;;27.93;;
14817;SDS011;7500;57.698;11.986;2024-03-02T00:59:13;50.17;;;28.53;;
14817;SDS011;7500;57.698;11.986;2024-03-02T01:01:40;50.40;;;28.53;;
14817;SDS011;7500;57.698;11.986;2024-03-02T01:04:07;51.07;;;28.63;;
14817;SDS011;7500;57.698;11.986;2024-03-02T01:06:35;47.20;;;25.93;;
14817;SDS011;7500;57.698;11.986;2024-03-02T01:09:02;49.80;;;27.37;;
14817;SDS011;7500;57.698;11.986;2024-03-02T01:11:29;48.57;;;29.17;;
14817;SDS011;7500;57.698;11.986;2024-03-02T01:13:56;53.00;;;27.77;;
14817;SDS011;7500;57.698;11.986;2024-03-02T01:16:22;50.53;;;27.60;;
14817;SDS011;7500;57.698;11.986;2024-03-02T01:18:49;53.70;;;27.83;;
14817;SDS011;7500;57.698;11.986;2024-03-02T01:21:16;50.30;;;28.00;;
14817;SDS011;7500;57.698;11.986;2024-03-02T01:23:44;50.67;;;27.53;;
14817;SDS011;7500;57.698;11.986;2024-03-02T01:26:10;48.13;;;26.33;;
14817;SDS011;7500;57.698;11.986;2024-03-02T01:28:36;51.23;;;28.00;;
14817;SDS011;7500;57.698;11.986;2024-03-02T01:31:03;47.23;;;26.97;;
14817;SDS011;7500;57.698;11.986;2024-03-02T01:33:29;49.10;;;27.33;;
14817;SDS011;7500;57.698;11.986;2024-03-02T01:35:56;47.30;;;27.77;;
14817;SDS011;7500;57.698;11.986;2024-03-02T01:38:22;47.43;;;26.97;;
14817;SDS011;7500;57.698;11.986;2024-03-02T01:40:50;48.67;;;27.37;;
14817;SDS011;7500;57.698;11.986;2024-03-02T01:43:18;53.67;;;27.83;;
14817;SDS011;7500;57.698;11.986;2024-03-02T01:45:44;43.80;;;27.10;;
14817;SDS011;7500;57.698;11.986;2024-03-02T01:48:11;45.73;;;25.77;;
14817;SDS011;7500;57.698;11.986;2024-03-02T01:50:37;50.53;;;26.87;;
14817;SDS011;7500;57.698;11.986;2024-03-02T01:53:04;45.40;;;26.03;;
14817;SDS011;7500;57.698;11.986;2024-03-02T01:55:30;42.87;;;26.53;;
14817;SDS011;7500;57.698;11.986;2024-03-02T01:57:59;52.27;;;28.00;;
14817;SDS011;7500;57.698;11.986;2024-03-02T02:00:26;48.43;;;27.17;;
14817;SDS011;7500;57.698;11.986;2024-03-02T02:02:53;53.83;;;28.53;;
14817;SDS011;7500;57.698;11.986;2024-03-02T02:05:19;47.87;;;26.67;;
14817;SDS011;7500;57.698;11.986;2024-03-02T02:07:46;46.07;;;27.60;;
14817;SDS011;7500;57.698;11.986;2024-03-02T02:10:13;46.97;;;26.27;;
14817;SDS011;7500;57.698;11.986;2024-03-02T02:12:39;44.13;;;26.50;;
14817;SDS011;7500;57.698;11.986;2024-03-02T02:18:01;40.53;;;25.33;;
14817;SDS011;7500;57.698;11.986;2024-03-02T02:20:29;50.47;;;26.97;;
14817;SDS011;7500;57.698;11.986;2024-03-02T02:22:57;50.60;;;27.70;;
14817;SDS011;7500;57.698;11.986;2024-03-02T02:25:24;50.07;;;27.47;;
14817;SDS011;7500;57.698;11.986;2024-03-02T02:27:50;48.20;;;27.00;;
14817;SDS011;7500;57.698;11.986;2024-03-02T02:30:20;46.37;;;26.07;;
14817;SDS011;7500;57.698;11.986;2024-03-02T02:32:47;45.07;;;25.77;;
14817;SDS011;7500;57.698;11.986;2024-03-02T02:35:13;44.60;;;26.27;;
14817;SDS011;7500;57.698;11.986;2024-03-02T02:37:40;45.57;;;26.13;;
14817;SDS011;7500;57.698;11.986;2024-03-02T02:40:09;48.90;;;26.50;;
14817;SDS011;7500;57.698;11.986;2024-03-02T02:42:36;47.13;;;27.30;;
14817;SDS011;7500;57.698;11.986;2024-03-02T02:45:02;46.53;;;27.10;;
14817;SDS011;7500;57.698;11.986;2024-03-02T02:47:29;46.27;;;26.77;;
14817;SDS011;7500;57.698;11.986;2024-03-02T02:49:55;48.73;;;27.20;;
14817;SDS011;7500;57.698;11.986;2024-03-02T02:52:22;49.40;;;26.97;;
14817;SDS011;7500;57.698;11.986;2024-03-02T02:54:48;41.87;;;26.17;;
14817;SDS011;7500;57.698;11.986;2024-03-02T02:57:17;49.17;;;27.83;;
14817;SDS011;7500;57.698;11.986;2024-03-02T02:59:44;43.67;;;25.87;;
14817;SDS011;7500;57.698;11.986;2024-03-02T03:02:10;46.67;;;25.90;;
14817;SDS011;7500;57.698;11.986;2024-03-02T03:04:38;45.93;;;26.23;;
14817;SDS011;7500;57.698;11.986;2024-03-02T03:07:06;47.07;;;25.97;;
14817;SDS011;7500;57.698;11.986;2024-03-02T03:09:32;46.80;;;26.27;;
14817;SDS011;7500;57.698;11.986;2024-03-02T03:11:59;45.17;;;26.13;;
14817;SDS011;7500;57.698;11.986;2024-03-02T03:14:27;47.97;;;25.83;;
14817;SDS011;7500;57.698;11.986;2024-03-02T03:16:54;47.80;;;26.77;;
14817;SDS011;7500;57.698;11.986;2024-03-02T03:19:21;48.17;;;25.93;;
14817;SDS011;7500;57.698;11.986;2024-03-02T03:21:47;47.77;;;26.90;;
14817;SDS011;7500;57.698;11.986;2024-03-02T03:24:14;42.17;;;25.70;;
14817;SDS011;7500;57.698;11.986;2024-03-02T03:26:40;44.03;;;26.07;;
14817;SDS011;7500;57.698;11.986;2024-03-02T03:29:07;45.00;;;25.67;;
14817;SDS011;7500;57.698;11.986;2024-03-02T03:31:35;45.13;;;25.50;;
14817;SDS011;7500;57.698;11.986;2024-03-02T03:34:01;42.93;;;24.73;;
14817;SDS011;7500;57.698;11.986;2024-03-02T03:36:28;45.23;;;25.20;;
14817;SDS011;7500;57.698;11.986;2024-03-02T03:38:54;45.00;;;25.30;;
14817;SDS011;7500;57.698;11.986;2024-03-02T03:41:21;46.10;;;25.90;;
14817;SDS011;7500;57.698;11.986;2024-03-02T03:43:48;46.27;;;26.13;;
14817;SDS011;7500;57.698;11.986;2024-03-02T03:46:14;43.47;;;24.37;;
14817;SDS011;7500;57.698;11.986;2024-03-02T03:48:42;43.73;;;24.63;;
14817;SDS011;7500;57.698;11.986;2024-03-02T03:51:09;43.37;;;24.73;;
14817;SDS011;7500;57.698;11.986;2024-03-02T03:53:36;39.80;;;24.77;;
14817;SDS011;7500;57.698;11.986;2024-03-02T03:56:02;43.83;;;23.53;;
14817;SDS011;7500;57.698;11.986;2024-03-02T03:58:29;44.67;;;24.57;;
14817;SDS011;7500;57.698;11.986;2024-03-02T04:00:56;40.00;;;23.50;;
14817;SDS011;7500;57.698;11.986;2024-03-02T04:03:22;42.50;;;24.50;;
14817;SDS011;7500;57.698;11.986;2024-03-02T04:05:50;39.13;;;23.47;;
14817;SDS011;7500;57.698;11.986;2024-03-02T04:08:17;40.83;;;23.60;;
14817;SDS011;7500;57.698;11.986;2024-03-02T04:10:43;38.50;;;23.80;;
14817;SDS011;7500;57.698;11.986;2024-03-02T04:13:10;44.87;;;24.57;;
14817;SDS011;7500;57.698;11.986;2024-03-02T04:15:36;41.60;;;23.93;;
14817;SDS011;7500;57.698;11.986;2024-03-02T04:18:03;41.80;;;23.80;;
14817;SDS011;7500;57.698;11.986;2024-03-02T04:20:30;41.17;;;23.37;;
14817;SDS011;7500;57.698;11.986;2024-03-02T04:22:58;43.87;;;24.43;;
14817;SDS011;7500;57.698;11.986;2024-03-02T04:25:24;44.10;;;24.20;;
14817;SDS011;7500;57.698;11.986;2024-03-02T04:27:51;38.03;;;23.03;;
14817;SDS011;7500;57.698;11.986;2024-03-02T04:30:17;36.50;;;23.03;;
14817;SDS011;7500;57.698;11.986;2024-03-02T04:32:44;39.03;;;22.57;;
14817;SDS011;7500;57.698;11.986;2024-03-02T04:35:11;38.70;;;22.33;;
14817;SDS011;7500;57.698;11.986;2024-03-02T04:37:38;37.27;;;23.37;;
14817;SDS011;7500;57.698;11.986;2024-03-02T04:40:07;42.37;;;23.10;;
14817;SDS011;7500;57.698;11.986;2024-03-02T04:42:34;40.10;;;22.03;;
14817;SDS011;7500;57.698;11.986;2024-03-02T04:45:00;37.87;;;21.83;;
14817;SDS011;7500;57.698;11.986;2024-03-02T04:47:27;36.07;;;22.27;;
14817;SDS011;7500;57.698;11.986;2024-03-02T04:49:53;37.63;;;22.60;;
14817;SDS011;7500;57.698;11.986;2024-03-02T04:52:20;34.90;;;21.47;;
14817;SDS011;7500;57.698;11.986;2024-03-02T04:54:47;37.40;;;22.80;;
14817;SDS011;7500;57.698;11.986;2024-03-02T04:57:28;34.37;;;21.57;;
14817;SDS011;7500;57.698;11.986;2024-03-02T04:59:55;36.87;;;22.70;;
14817;SDS011;7500;57.698;11.986;2024-03-02T05:02:21;38.03;;;22.43;;
14817;SDS011;7500;57.698;11.986;2024-03-02T05:04:48;37.23;;;21.40;;
14817;SDS011;7500;57.698;11.986;2024-03-02T05:07:15;35.50;;;21.43;;
14817;SDS011;7500;57.698;11.986;2024-03-02T05:09:41;37.50;;;22.47;;
14817;SDS011;7500;57.698;11.986;2024-03-02T05:12:08;34.83;;;22.13;;
14817;SDS011;7500;57.698;11.986;2024-03-02T05:15:01;37.17;;;22.40;;
14817;SDS011;7500;57.698;11.986;2024-03-02T05:17:28;33.37;;;21.13;;
14817;SDS011;7500;57.698;11.986;2024-03-02T05:19:54;39.60;;;21.30;;
14817;SDS011;7500;57.698;11.986;2024-03-02T05:22:21;33.13;;;21.40;;
14817;SDS011;7500;57.698;11.986;2024-03-02T05:24:47;34.40;;;21.60;;
14817;SDS011;7500;57.698;11.986;2024-03-02T05:27:14;33.40;;;20.97;;
14817;SDS011;7500;57.698;11.986;2024-03-02T05:29:41;37.90;;;21.70;;
14817;SDS011;7500;57.698;11.986;2024-03-02T05:32:08;39.53;;;21.83;;
14817;SDS011;7500;57.698;11.986;2024-03-02T05:34:35;37.00;;;21.33;;
14817;SDS011;7500;57.698;11.986;2024-03-02T05:37:02;33.53;;;21.10;;
14817;SDS011;7500;57.698;11.986;2024-03-02T05:39:28;36.47;;;22.03;;
14817;SDS011;7500;57.698;11.986;2024-03-02T05:41:55;35.83;;;22.07;;
14817;SDS011;7500;57.698;11.986;2024-03-02T05:44:21;34.43;;;21.60;;
14817;SDS011;7500;57.698;11.986;2024-03-02T05:46:48;32.47;;;21.00;;
14817;SDS011;7500;57.698;11.986;2024-03-02T05:49:16;35.40;;;22.30;;
14817;SDS011;7500;57.698;11.986;2024-03-02T05:51:42;36.90;;;21.83;;
14817;SDS011;7500;57.698;11.986;2024-03-02T05:54:09;38.40;;;21.60;;
14817;SDS011;7500;57.698;11.986;2024-03-02T05:56:35;35.63;;;21.67;;
14817;SDS011;7500;57.698;11.986;2024-03-02T05:59:02;38.13;;;21.53;;
14817;SDS011;7500;57.698;11.986;2024-03-02T06:01:37;38.67;;;26.25;;
14817;SDS011;7500;57.698;11.986;2024-03-02T06:04:04;35.67;;;22.97;;
14817;SDS011;7500;57.698;11.986;2024-03-02T06:06:32;36.30;;;22.80;;
14817;SDS011;7500;57.698;11.986;2024-03-02T06:08:59;34.30;;;21.23;;
14817;SDS011;7500;57.698;11.986;2024-03-02T06:11:25;40.20;;;23.00;;
14817;SDS011;7500;57.698;11.986;2024-03-02T06:13:52;38.07;;;22.87;;
14817;SDS011;7500;57.698;11.986;2024-03-02T06:16:18;43.17;;;22.60;;
14817;SDS011;7500;57.698;11.986;2024-03-02T06:18:45;41.20;;;22.67;;
14817;SDS011;7500;57.698;11.986;2024-03-02T06:21:12;37.93;;;22.63;;
14817;SDS011;7500;57.698;11.986;2024-03-02T06:23:40;41.43;;;23.97;;
14817;SDS011;7500;57.698;11.986;2024-03-02T06:26:06;37.83;;;23.27;;
14817;SDS011;7500;57.698;11.986;2024-03-02T06:28:33;37.60;;;22.83;;
14817;SDS011;7500;57.698;11.986;2024-03-02T06:31:01;40.07;;;23.43;;
14817;SDS011;7500;57.698;11.986;2024-03-02T06:33:28;39.37;;;23.17;;
14817;SDS011;7500;57.698;11.986;2024-03-02T06:35:54;37.70;;;22.47;;
14817;SDS011;7500;57.698;11.986;2024-03-02T06:38:21;42.27;;;24.03;;
14817;SDS011;7500;57.698;11.986;2024-03-02T06:40:49;39.00;;;22.77;;
14817;SDS011;7500;57.698;11.986;2024-03-02T06:43:16;42.67;;;23.37;;
14817;SDS011;7500;57.698;11.986;2024-03-02T06:45:42;41.00;;;24.53;;
14817;SDS011;7500;57.698;11.986;2024-03-02T06:48:09;40.90;;;23.60;;
14817;SDS011;7500;57.698;11.986;2024-03-02T06:50:35;41.43;;;24.43;;
14817;SDS011;7500;57.698;11.986;2024-03-02T06:53:02;39.13;;;23.73;;
14817;SDS011;7500;57.698;11.986;2024-03-02T06:55:29;44.97;;;23.83;;
14817;SDS011;7500;57.698;11.986;2024-03-02T06:57:57;40.63;;;24.77;;
14817;SDS011;7500;57.698;11.986;2024-03-02T07:00:24;41.60;;;23.80;;
14817;SDS011;7500;57.698;11.986;2024-03-02T07:02:50;42.93;;;23.77;;
14817;SDS011;7500;57.698;11.986;2024-03-02T07:05:17;40.67;;;24.03;;
14817;SDS011;7500;57.698;11.986;2024-03-02T07:07:43;41.93;;;22.90;;
14817;SDS011;7500;57.698;11.986;2024-03-02T07:10:10;37.97;;;23.80;;
14817;SDS011;7500;57.698;11.986;2024-03-02T07:12:36;41.60;;;24.23;;
14817;SDS011;7500;57.698;11.986;2024-03-02T07:15:05;44.40;;;24.53;;
14817;SDS011;7500;57.698;11.986;2024-03-02T07:17:53;39.30;;;23.00;;
14817;SDS011;7500;57.698;11.986;2024-03-02T07:20:20;42.57;;;23.20;;
14817;SDS011;7500;57.698;11.986;2024-03-02T07:22:47;38.90;;;23.07;;
14817;SDS011;7500;57.698;11.986;2024-03-02T07:25:13;42.10;;;24.50;;
14817;SDS011;7500;57.698;11.986;2024-03-02T07:27:40;38.23;;;23.90;;
14817;SDS011;7500;57.698;11.986;2024-03-02T07:30:09;37.30;;;23.17;;
14817;SDS011;7500;57.698;11.986;2024-03-02T07:32:36;38.97;;;23.27;;
14817;SDS011;7500;57.698;11.986;2024-03-02T07:35:03;34.97;;;22.40;;
14817;SDS011;7500;57.698;11.986;2024-03-02T07:37:30;39.97;;;22.80;;
14817;SDS011;7500;57.698;11.986;2024-03-02T07:39:56;37.07;;;23.00;;
14817;SDS011;7500;57.698;11.986;2024-03-02T07:42:23;38.17;;;22.87;;
14817;SDS011;7500;57.698;11.986;2024-03-02T07:44:49;39.60;;;23.50;;
14817;SDS011;7500;57.698;11.986;2024-03-02T07:47:17;36.47;;;23.47;;
14817;SDS011;7500;57.698;11.986;2024-03-02T07:49:44;41.30;;;23.57;;
14817;SDS011;7500;57.698;11.986;2024-03-02T07:52:11;40.17;;;23.63;;
14817;SDS011;7500;57.698;11.986;2024-03-02T07:54:37;40.60;;;23.53;;
14817;SDS011;7500;57.698;11.986;2024-03-02T07:57:04;40.93;;;23.90;;
14817;SDS011;7500;57.698;11.986;2024-03-02T07:59:31;33.60;;;22.00;;
14817;SDS011;7500;57.698;11.986;2024-03-02T08:01:57;43.47;;;24.47;;
14817;SDS011;7500;57.698;11.986;2024-03-02T08:04:25;38.93;;;22.50;;
14817;SDS011;7500;57.698;11.986;2024-03-02T08:06:52;37.00;;;23.13;;
14817;SDS011;7500;57.698;11.986;2024-03-02T08:09:19;38.53;;;23.70;;
14817;SDS011;7500;57.698;11.986;2024-03-02T08:11:46;36.80;;;23.80;;
14817;SDS011;7500;57.698;11.986;2024-03-02T08:14:13;36.30;;;23.77;;
14817;SDS011;7500;57.698;11.986;2024-03-02T08:16:39;46.47;;;26.27;;
14817;SDS011;7500;57.698;11.986;2024-03-02T08:19:06;38.93;;;23.87;;
14817;SDS011;7500;57.698;11.986;2024-03-02T08:21:35;39.90;;;23.70;;
14817;SDS011;7500;57.698;11.986;2024-03-02T08:24:02;39.57;;;24.20;;
14817;SDS011;7500;57.698;11.986;2024-03-02T08:26:28;39.23;;;23.77;;
14817;SDS011;7500;57.698;11.986;2024-03-02T08:28:56;40.40;;;24.53;;
14817;SDS011;7500;57.698;11.986;2024-03-02T08:31:23;38.13;;;25.50;;
14817;SDS011;7500;57.698;11.986;2024-03-02T08:33:50;43.10;;;25.60;;
14817;SDS011;7500;57.698;11.986;2024-03-02T08:36:16;41.17;;;25.13;;
14817;SDS011;7500;57.698;11.986;2024-03-02T08:38:44;41.30;;;25.07;;
14817;SDS011;7500;57.698;11.986;2024-03-02T08:41:11;42.20;;;25.37;;
14817;SDS011;7500;57.698;11.986;2024-03-02T08:43:39;41.50;;;25.97;;
14817;SDS011;7500;57.698;11.986;2024-03-02T08:46:06;43.27;;;26.03;;
14817;SDS011;7500;57.698;11.986;2024-03-02T08:48:33;43.70;;;24.57;;
14817;SDS011;7500;57.698;11.986;2024-03-02T08:51:00;39.80;;;24.97;;
14817;SDS011;7500;57.698;11.986;2024-03-02T08:53:29;41.17;;;25.13;;
14817;SDS011;7500;57.698;11.986;2024-03-02T08:55:57;41.17;;;26.57;;
14817;SDS011;7500;57.698;11.986;2024-03-02T08:58:24;38.53;;;26.13;;
14817;SDS011;7500;57.698;11.986;2024-03-02T09:00:50;41.13;;;25.20;;
14817;SDS011;7500;57.698;11.986;2024-03-02T09:03:17;40.87;;;25.93;;
14817;SDS011;7500;57.698;11.986;2024-03-02T09:05:44;38.63;;;25.87;;
14817;SDS011;7500;57.698;11.986;2024-03-02T09:08:11;42.57;;;25.70;;
14817;SDS011;7500;57.698;11.986;2024-03-02T09:10:37;40.50;;;26.47;;
14817;SDS011;7500;57.698;11.986;2024-03-02T09:13:06;40.93;;;25.60;;
14817;SDS011;7500;57.698;11.986;2024-03-02T09:15:33;43.37;;;26.00;;
14817;SDS011;7500;57.698;11.986;2024-03-02T09:18:02;38.53;;;25.90;;
14817;SDS011;7500;57.698;11.986;2024-03-02T09:20:29;41.67;;;26.40;;
14817;SDS011;7500;57.698;11.986;2024-03-02T09:22:56;43.72;;;31.48;;
14817;SDS011;7500;57.698;11.986;2024-03-02T09:25:22;42.47;;;28.80;;
14817;SDS011;7500;57.698;11.986;2024-03-02T09:27:49;44.60;;;27.10;;
14817;SDS011;7500;57.698;11.986;2024-03-02T09:30:17;45.30;;;29.03;;
14817;SDS011;7500;57.698;11.986;2024-03-02T09:32:44;43.47;;;29.27;;
14817;SDS011;7500;57.698;11.986;2024-03-02T09:35:10;39.77;;;27.23;;
14817;SDS011;7500;57.698;11.986;2024-03-02T09:37:37;43.20;;;28.70;;
14817;SDS011;7500;57.698;11.986;2024-03-02T09:40:04;46.97;;;30.20;;
14817;SDS011;7500;57.698;11.986;2024-03-02T09:42:31;45.20;;;29.43;;
14817;SDS011;7500;57.698;11.986;2024-03-02T09:44:58;46.70;;;30.70;;
14817;SDS011;7500;57.698;11.986;2024-03-02T09:47:26;48.53;;;31.57;;
14817;SDS011;7500;57.698;11.986;2024-03-02T09:49:53;50.03;;;31.23;;
14817;SDS011;7500;57.698;11.986;2024-03-02T09:52:20;52.83;;;32.60;;
14817;SDS011;7500;57.698;11.986;2024-03-02T09:54:47;53.27;;;32.87;;
14817;SDS011;7500;57.698;11.986;2024-03-02T09:57:14;51.50;;;32.07;;
14817;SDS011;7500;57.698;11.986;2024-03-02T09:59:41;51.27;;;33.60;;
14817;SDS011;7500;57.698;11.986;2024-03-02T10:02:07;50.23;;;32.53;;
14817;SDS011;7500;57.698;11.986;2024-03-02T10:04:35;49.57;;;31.67;;
14817;SDS011;7500;57.698;11.986;2024-03-02T10:07:11;49.57;;;33.03;;
14817;SDS011;7500;57.698;11.986;2024-03-02T10:09:38;45.20;;;31.53;;
14817;SDS011;7500;57.698;11.986;2024-03-02T10:12:05;52.07;;;33.40;;
14817;SDS011;7500;57.698;11.986;2024-03-02T10:14:32;49.83;;;32.83;;
14817;SDS011;7500;57.698;11.986;2024-03-02T10:17:01;50.23;;;32.47;;
14817;SDS011;7500;57.698;11.986;2024-03-02T10:19:28;50.90;;;32.67;;
14817;SDS011;7500;57.698;11.986;2024-03-02T10:21:59;48.83;;;33.07;;
14817;SDS011;7500;57.698;11.986;2024-03-02T10:24:25;46.77;;;31.57;;
14817;SDS011;7500;57.698;11.986;2024-03-02T10:26:52;48.10;;;32.57;;
14817;SDS011;7500;57.698;11.986;2024-03-02T10:29:19;49.10;;;33.30;;
14817;SDS011;7500;57.698;11.986;2024-03-02T10:31:46;49.43;;;32.00;;
14817;SDS011;7500;57.698;11.986;2024-03-02T10:34:13;48.30;;;31.77;;
14817;SDS011;7500;57.698;11.986;2024-03-02T10:36:40;47.30;;;32.20;;
14817;SDS011;7500;57.698;11.986;2024-03-02T10:39:09;46.23;;;32.07;;
14817;SDS011;7500;57.698;11.986;2024-03-02T10:41:36;44.47;;;30.70;;
14817;SDS011;7500;57.698;11.986;2024-03-02T10:44:03;44.20;;;31.23;;
14817;SDS011;7500;57.698;11.986;2024-03-02T10:46:30;46.60;;;31.33;;
14817;SDS011;7500;57.698;11.986;2024-03-02T10:48:57;45.83;;;29.73;;
14817;SDS011;7500;57.698;11.986;2024-03-02T10:51:24;47.07;;;31.50;;
14817;SDS011;7500;57.698;11.986;2024-03-02T10:53:52;44.77;;;30.97;;
14817;SDS011;7500;57.698;11.986;2024-03-02T10:56:22;42.77;;;30.20;;
14817;SDS011;7500;57.698;11.986;2024-03-02T10:58:52;41.53;;;30.07;;
14817;SDS011;7500;57.698;11.986;2024-03-02T11:01:21;43.13;;;31.00;;
14817;SDS011;7500;57.698;11.986;2024-03-02T11:03:48;42.23;;;29.87;;
14817;SDS011;7500;57.698;11.986;2024-03-02T11:06:15;41.30;;;28.40;;
14817;SDS011;7500;57.698;11.986;2024-03-02T11:08:41;41.30;;;29.13;;
14817;SDS011;7500;57.698;11.986;2024-03-02T11:11:12;43.67;;;30.90;;
14817;SDS011;7500;57.698;11.986;2024-03-02T11:13:43;41.93;;;29.17;;
14817;SDS011;7500;57.698;11.986;2024-03-02T11:16:12;36.03;;;26.70;;
14817;SDS011;7500;57.698;11.986;2024-03-02T11:18:43;39.03;;;27.90;;
14817;SDS011;7500;57.698;11.986;2024-03-02T11:21:09;39.93;;;27.87;;
14817;SDS011;7500;57.698;11.986;2024-03-02T11:23:37;38.90;;;26.00;;
14817;SDS011;7500;57.698;11.986;2024-03-02T11:26:18;35.03;;;26.03;;
14817;SDS011;7500;57.698;11.986;2024-03-02T11:28:46;36.27;;;25.63;;
14817;SDS011;7500;57.698;11.986;2024-03-02T11:31:13;36.13;;;23.80;;
14817;SDS011;7500;57.698;11.986;2024-03-02T11:33:40;34.47;;;25.43;;
14817;SDS011;7500;57.698;11.986;2024-03-02T11:36:06;31.30;;;22.97;;
14817;SDS011;7500;57.698;11.986;2024-03-02T11:38:34;32.83;;;23.33;;
14817;SDS011;7500;57.698;11.986;2024-03-02T11:41:01;32.17;;;24.03;;
14817;SDS011;7500;57.698;11.986;2024-03-02T11:43:28;32.83;;;23.63;;
14817;SDS011;7500;57.698;11.986;2024-03-02T11:45:59;29.87;;;22.10;;
14817;SDS011;7500;57.698;11.986;2024-03-02T11:48:29;32.40;;;23.07;;
14817;SDS011;7500;57.698;11.986;2024-03-02T11:50:57;26.97;;;20.73;;
14817;SDS011;7500;57.698;11.986;2024-03-02T11:53:24;24.77;;;20.00;;
14817;SDS011;7500;57.698;11.986;2024-03-02T11:55:52;25.80;;;19.83;;
14817;SDS011;7500;57.698;11.986;2024-03-02T11:58:21;24.80;;;20.43;;
14817;SDS011;7500;57.698;11.986;2024-03-02T12:00:50;28.03;;;20.70;;
14817;SDS011;7500;57.698;11.986;2024-03-02T12:03:18;24.43;;;19.03;;
14817;SDS011;7500;57.698;11.986;2024-03-02T12:05:47;23.97;;;19.17;;
14817;SDS011;7500;57.698;11.986;2024-03-02T12:08:14;25.67;;;20.03;;
14817;SDS011;7500;57.698;11.986;2024-03-02T12:10:41;22.67;;;19.00;;
14817;SDS011;7500;57.698;11.986;2024-03-02T12:13:09;22.43;;;18.53;;
14817;SDS011;7500;57.698;11.986;2024-03-02T12:15:37;21.77;;;17.10;;
14817;SDS011;7500;57.698;11.986;2024-03-02T12:18:04;19.53;;;15.50;;
14817;SDS011;7500;57.698;11.986;2024-03-02T12:20:33;18.80;;;15.33;;
14817;SDS011;7500;57.698;11.986;2024-03-02T12:22:59;18.87;;;15.60;;
14817;SDS011;7500;57.698;11.986;2024-03-02T12:25:27;15.33;;;13.67;;
14817;SDS011;7500;57.698;11.986;2024-03-02T12:27:54;17.57;;;14.10;;
14817;SDS011;7500;57.698;11.986;2024-03-02T12:30:21;16.80;;;14.07;;
14817;SDS011;7500;57.698;11.986;2024-03-02T12:32:48;19.97;;;15.07;;
14817;SDS011;7500;57.698;11.986;2024-03-02T12:35:15;17.70;;;13.80;;
14817;SDS011;7500;57.698;11.986;2024-03-02T12:37:43;17.17;;;13.63;;
14817;SDS011;7500;57.698;11.986;2024-03-02T12:40:11;14.20;;;12.70;;
14817;SDS011;7500;57.698;11.986;2024-03-02T12:42:38;15.43;;;13.23;;
14817;SDS011;7500;57.698;11.986;2024-03-02T12:45:05;15.47;;;13.37;;
14817;SDS011;7500;57.698;11.986;2024-03-02T12:47:31;15.63;;;12.30;;
14817;SDS011;7500;57.698;11.986;2024-03-02T12:49:58;14.50;;;13.00;;
14817;SDS011;7500;57.698;11.986;2024-03-02T12:52:25;14.87;;;12.53;;
14817;SDS011;7500;57.698;11.986;2024-03-02T12:54:53;12.87;;;11.50;;
14817;SDS011;7500;57.698;11.986;2024-03-02T12:57:24;13.03;;;11.57;;
14817;SDS011;7500;57.698;11.986;2024-03-02T12:59:51;13.13;;;11.27;;
14817;SDS011;7500;57.698;11.986;2024-03-02T13:02:18;13.00;;;11.70;;
14817;SDS011;7500;57.698;11.986;2024-03-02T13:04:50;12.73;;;11.27;;
14817;SDS011;7500;57.698;11.986;2024-03-02T13:07:18;13.30;;;11.13;;
14817;SDS011;7500;57.698;11.986;2024-03-02T13:09:45;12.60;;;11.30;;
14817;SDS011;7500;57.698;11.986;2024-03-02T13:12:13;12.13;;;10.90;;
14817;SDS011;7500;57.698;11.986;2024-03-02T13:14:41;11.53;;;10.20;;
14817;SDS011;7500;57.698;11.986;2024-03-02T13:17:07;19.77;;;11.07;;
14817;SDS011;7500;57.698;11.986;2024-03-02T13:19:34;12.73;;;10.63;;
14817;SDS011;7500;57.698;11.986;2024-03-02T13:22:01;11.93;;;10.63;;
14817;SDS011;7500;57.698;11.986;2024-03-02T13:24:28;10.57;;;9.57;;
14817;SDS011;7500;57.698;11.986;2024-03-02T13:26:55;13.07;;;10.70;;
14817;SDS011;7500;57.698;11.986;2024-03-02T13:29:25;11.07;;;9.97;;
14817;SDS011;7500;57.698;11.986;2024-03-02T13:31:51;11.73;;;10.07;;
14817;SDS011;7500;57.698;11.986;2024-03-02T13:34:18;11.70;;;10.10;;
14817;SDS011;7500;57.698;11.986;2024-03-02T13:36:45;11.43;;;10.07;;
14817;SDS011;7500;57.698;11.986;2024-03-02T13:39:11;12.07;;;9.63;;
14817;SDS011;7500;57.698;11.986;2024-03-02T13:41:40;11.03;;;8.70;;
14817;SDS011;7500;57.698;11.986;2024-03-02T13:44:07;11.97;;;9.83;;
14817;SDS011;7500;57.698;11.986;2024-03-02T13:46:35;10.33;;;9.30;;
14817;SDS011;7500;57.698;11.986;2024-03-02T13:49:01;12.90;;;10.13;;
14817;SDS011;7500;57.698;11.986;2024-03-02T13:51:29;10.60;;;9.30;;
14817;SDS011;7500;57.698;11.986;2024-03-02T13:53:57;19.83;;;10.20;;
14817;SDS011;7500;57.698;11.986;2024-03-02T13:56:24;10.87;;;9.70;;
14817;SDS011;7500;57.698;11.986;2024-03-02T13:58:51;10.67;;;9.57;;
14817;SDS011;7500;57.698;11.986;2024-03-02T14:01:17;10.07;;;8.87;;
14817;SDS011;7500;57.698;11.986;2024-03-02T14:03:46;11.23;;;9.00;;
14817;SDS011;7500;57.698;11.986;2024-03-02T14:06:12;10.13;;;8.57;;
14817;SDS011;7500;57.698;11.986;2024-03-02T14:08:39;9.97;;;8.33;;
14817;SDS011;7500;57.698;11.986;2024-03-02T14:11:07;10.90;;;8.77;;
14817;SDS011;7500;57.698;11.986;2024-03-02T14:13:36;9.60;;;8.57;;
14817;SDS011;7500;57.698;11.986;2024-03-02T14:16:03;10.63;;;8.23;;
14817;SDS011;7500;57.698;11.986;2024-03-02T14:18:30;10.73;;;8.90;;
14817;SDS011;7500;57.698;11.986;2024-03-02T14:20:58;10.90;;;8.23;;
14817;SDS011;7500;57.698;11.986;2024-03-02T14:23:24;10.23;;;8.43;;
14817;SDS011;7500;57.698;11.986;2024-03-02T14:25:53;10.20;;;9.10;;